Time;durP1;ratioP1;P1;durP2;ratioP2;P2;SDS_P1;SDS_P2;PMS_P1;PMS_P2;Temp;Humidity;BMP_temperature;BMP_pressure;BME280_temperature;BME280_humidity;BME280_pressure;Samples;Min_cycle;Max_cycle;Signal;HPM_P1;HPM_P2
2022/03/16 00:00:17;;;;;;;3.97;3.58;;;8.30;92.70;;;;;;647545;221;26542;-70
2022/03/16 00:02:45;;;;;;;3.90;3.40;;;8.40;92.80;;;;;;647582;222;26639;-70
2022/03/16 00:05:12;;;;;;;3.80;3.30;;;8.30;92.80;;;;;;647387;222;26827;-70
2022/03/16 00:07:39;;;;;;;4.68;3.67;;;8.30;92.80;;;;;;647589;222;26573;-69
2022/03/16 00:10:08;;;;;;;5.12;3.70;;;8.30;93.20;;;;;;642311;221;26938;-70
2022/03/16 00:12:35;;;;;;;4.07;3.60;;;8.20;93.30;;;;;;640804;224;26767;-70
2022/03/16 00:15:02;;;;;;;3.85;3.55;;;8.10;93.80;;;;;;640735;224;26518;-70
2022/03/16 00:17:29;;;;;;;4.60;3.70;;;8.10;94.00;;;;;;640884;224;26512;-69
2022/03/16 00:19:57;;;;;;;5.93;3.92;;;8.20;94.40;;;;;;645035;222;26523;-70
2022/03/16 00:22:24;;;;;;;4.50;4.10;;;8.20;94.30;;;;;;647451;222;26565;-69
2022/03/16 00:24:51;;;;;;;3.42;3.12;;;8.10;94.60;;;;;;647539;222;26577;-70
2022/03/16 00:27:19;;;;;;;4.65;3.62;;;8.10;94.90;;;;;;647507;222;26792;-69
2022/03/16 00:29:46;;;;;;;3.97;3.67;;;8.10;95.10;;;;;;643390;222;26556;-70
2022/03/16 00:32:13;;;;;;;3.83;3.40;;;8.10;95.40;;;;;;640780;224;26766;-69
2022/03/16 00:34:41;;;;;;;3.83;3.45;;;8.10;95.90;;;;;;640748;224;26528;-70
2022/03/16 00:37:09;;;;;;;4.05;3.55;;;8.00;96.40;;;;;;642677;222;26599;-70
2022/03/16 00:39:36;;;;;;;4.45;3.75;;;8.00;96.40;;;;;;645424;221;26598;-69
2022/03/16 00:42:04;;;;;;;3.72;3.40;;;7.90;96.70;;;;;;648345;222;26526;-69
2022/03/16 00:44:34;;;;;;;4.50;3.55;;;7.90;97.00;;;;;;648265;221;26639;-69
2022/03/16 00:46:59;;;;;;;6.50;3.58;;;7.90;97.30;;;;;;647844;222;27037;-69
2022/03/16 00:49:26;;;;;;;3.92;3.53;;;7.90;97.40;;;;;;643691;222;26504;-69
2022/03/16 00:51:54;;;;;;;3.55;3.05;;;7.80;98.00;;;;;;646964;221;26516;-70
2022/03/16 00:54:21;;;;;;;3.90;3.55;;;7.80;98.00;;;;;;643459;222;26714;-70
2022/03/16 00:56:48;;;;;;;3.95;3.62;;;7.80;98.40;;;;;;641422;221;26598;-70
2022/03/16 00:59:16;;;;;;;3.80;3.20;;;7.70;98.70;;;;;;641137;223;26808;-70
2022/03/16 01:01:43;;;;;;;3.60;3.30;;;7.60;99.20;;;;;;638350;223;26572;-70
2022/03/16 01:04:11;;;;;;;3.87;3.50;;;7.60;99.40;;;;;;637718;224;26603;-70
2022/03/16 01:06:38;;;;;;;3.55;3.03;;;7.60;99.60;;;;;;637805;225;26565;-70
2022/03/16 01:09:05;;;;;;;3.90;3.50;;;7.60;99.80;;;;;;638063;222;26833;-70
2022/03/16 01:11:32;;;;;;;3.17;2.97;;;7.50;99.90;;;;;;637639;224;26553;-70
2022/03/16 01:13:59;;;;;;;4.30;3.40;;;7.50;99.90;;;;;;637428;225;26827;-70
2022/03/16 01:16:27;;;;;;;4.53;3.28;;;7.40;99.90;;;;;;637514;224;26590;-70
2022/03/16 01:18:55;;;;;;;3.87;3.58;;;7.40;99.90;;;;;;637852;221;26594;-70
2022/03/16 01:21:23;;;;;;;3.30;3.10;;;7.40;99.90;;;;;;637520;225;26869;-70
2022/03/16 01:23:50;;;;;;;3.95;3.55;;;7.30;99.90;;;;;;637525;225;26573;-69
2022/03/16 01:26:17;;;;;;;3.75;3.45;;;7.30;99.90;;;;;;637448;226;26794;-70
2022/03/16 01:28:44;;;;;;;3.80;3.45;;;7.20;99.90;;;;;;646390;222;26583;-70
2022/03/16 01:31:11;;;;;;;4.12;3.72;;;7.10;99.90;;;;;;647502;222;26552;-69
2022/03/16 01:33:39;;;;;;;3.78;3.47;;;7.10;99.90;;;;;;647479;222;26580;-69
2022/03/16 01:36:07;;;;;;;3.45;3.20;;;7.10;99.90;;;;;;647338;222;26591;-70
2022/03/16 01:38:34;;;;;;;4.25;3.80;;;7.10;99.90;;;;;;647499;222;26806;-70
2022/03/16 01:41:02;;;;;;;4.03;3.72;;;7.10;99.90;;;;;;647497;222;26628;-70
2022/03/16 01:43:29;;;;;;;3.42;3.12;;;7.10;99.90;;;;;;647435;221;26771;-69
2022/03/16 01:45:57;;;;;;;3.55;3.00;;;7.10;99.90;;;;;;647284;222;26568;-70
2022/03/16 01:48:24;;;;;;;4.37;3.85;;;7.10;99.90;;;;;;649203;220;26793;-69
2022/03/16 01:50:52;;;;;;;3.37;3.08;;;7.00;99.90;;;;;;643515;221;26516;-69
2022/03/16 01:53:20;;;;;;;3.95;3.25;;;7.00;99.90;;;;;;638512;222;26585;-70
2022/03/16 01:55:47;;;;;;;3.53;3.22;;;7.00;99.90;;;;;;638301;225;26574;-70
2022/03/16 01:58:14;;;;;;;3.85;3.55;;;7.00;99.90;;;;;;638106;225;26578;-70
2022/03/16 02:00:41;;;;;;;4.20;3.50;;;6.90;99.90;;;;;;638214;222;26521;-70
2022/03/16 02:03:09;;;;;;;3.67;3.37;;;6.90;99.90;;;;;;638036;225;26539;-70
2022/03/16 02:05:37;;;;;;;3.30;3.00;;;6.90;99.90;;;;;;637934;224;26503;-70
2022/03/16 02:08:05;;;;;;;3.17;2.97;;;6.90;99.90;;;;;;637636;224;26584;-70
2022/03/16 02:10:32;;;;;;;3.62;3.35;;;6.80;99.90;;;;;;640364;222;26597;-70
2022/03/16 02:13:00;;;;;;;3.80;3.45;;;6.80;99.90;;;;;;647735;222;26591;-70
2022/03/16 02:15:27;;;;;;;3.78;3.40;;;6.70;99.90;;;;;;647873;222;26789;-70
2022/03/16 02:17:55;;;;;;;3.90;3.50;;;6.80;99.90;;;;;;647808;222;26521;-70
2022/03/16 02:20:22;;;;;;;3.97;3.58;;;6.80;99.90;;;;;;647357;222;26741;-70
2022/03/16 02:22:56;;;;;;;3.83;3.53;;;6.70;99.90;;;;;;647673;222;26644;-70
2022/03/16 02:25:24;;;;;;;3.97;3.62;;;6.70;99.90;;;;;;647492;221;26585;-70
2022/03/16 02:27:52;;;;;;;3.25;2.95;;;6.60;99.90;;;;;;644550;222;26564;-70
2022/03/16 02:30:20;;;;;;;3.53;3.22;;;6.60;99.90;;;;;;637392;226;26802;-69
2022/03/16 02:32:46;;;;;;;3.83;3.53;;;6.50;99.90;;;;;;637210;225;26607;-69
2022/03/16 02:35:14;;;;;;;3.67;3.30;;;6.50;99.90;;;;;;640348;221;26702;-69
2022/03/16 02:37:42;;;;;;;4.15;3.75;;;6.40;99.90;;;;;;647488;222;26572;-70
2022/03/16 02:40:10;;;;;;;4.62;3.40;;;6.40;99.90;;;;;;648377;221;26873;-69
2022/03/16 02:42:37;;;;;;;3.45;3.25;;;6.40;99.90;;;;;;650270;221;26784;-69
2022/03/16 02:45:04;;;;;;;3.45;3.15;;;6.30;99.90;;;;;;647379;221;26529;-70
2022/03/16 02:47:32;;;;;;;3.75;3.45;;;6.20;99.90;;;;;;637482;225;26805;-70
2022/03/16 02:50:00;;;;;;;3.55;3.05;;;6.20;99.90;;;;;;637416;226;26648;-70
2022/03/16 02:52:28;;;;;;;4.00;3.37;;;6.20;99.90;;;;;;637412;226;26585;-70
2022/03/16 02:54:55;;;;;;;3.10;2.90;;;6.20;99.90;;;;;;637960;224;26576;-70
2022/03/16 02:57:22;;;;;;;3.45;3.05;;;6.20;99.90;;;;;;640913;224;26872;-70
2022/03/16 02:59:49;;;;;;;3.72;3.33;;;6.20;99.90;;;;;;643873;221;26582;-70
2022/03/16 03:02:16;;;;;;;3.50;3.20;;;6.10;99.90;;;;;;646681;221;27015;-70
2022/03/16 03:04:44;;;;;;;3.47;3.17;;;6.10;99.90;;;;;;648569;222;26587;-70
2022/03/16 03:07:12;;;;;;;4.15;3.05;;;6.10;99.90;;;;;;638910;221;26572;-70
2022/03/16 03:09:41;;;;;;;3.42;3.17;;;6.10;99.90;;;;;;638074;224;26576;-70
2022/03/16 03:12:10;;;;;;;3.67;3.42;;;6.00;99.90;;;;;;638075;225;26516;-70
2022/03/16 03:14:37;;;;;;;3.60;3.28;;;6.00;99.90;;;;;;638449;225;26754;-70
2022/03/16 03:17:05;;;;;;;3.67;3.37;;;6.00;99.90;;;;;;638550;224;26535;-70
2022/03/16 03:19:32;;;;;;;3.60;3.30;;;5.90;99.90;;;;;;638152;225;26544;-70
2022/03/16 03:21:59;;;;;;;5.75;4.12;;;5.80;99.90;;;;;;638165;224;26525;-70
2022/03/16 03:24:27;;;;;;;3.40;3.10;;;5.80;99.90;;;;;;638164;224;26525;-70
2022/03/16 03:26:54;;;;;;;3.30;3.00;;;5.80;99.90;;;;;;637849;221;26572;-70
2022/03/16 03:29:22;;;;;;;3.80;3.50;;;5.70;99.90;;;;;;637712;225;26580;-70
2022/03/16 03:31:49;;;;;;;3.50;3.22;;;5.70;99.90;;;;;;645746;222;26814;-70
2022/03/16 03:34:16;;;;;;;3.50;3.20;;;5.60;99.90;;;;;;637692;224;26588;-70
2022/03/16 03:36:43;;;;;;;3.42;3.15;;;5.60;99.90;;;;;;637474;225;26804;-70
2022/03/16 03:39:11;;;;;;;3.78;3.22;;;5.40;99.90;;;;;;637470;224;26597;-70
2022/03/16 03:41:39;;;;;;;3.53;2.90;;;5.40;99.90;;;;;;638046;221;26587;-70
2022/03/16 03:44:08;;;;;;;3.25;2.97;;;5.40;99.90;;;;;;637393;225;26916;-70
2022/03/16 03:46:35;;;;;;;3.40;3.20;;;5.40;99.90;;;;;;637417;226;26578;-70
2022/03/16 03:49:03;;;;;;;4.30;3.90;;;5.40;99.90;;;;;;637420;225;26570;-70
2022/03/16 03:51:30;;;;;;;5.57;3.15;;;5.40;99.90;;;;;;637715;222;26801;-70
2022/03/16 03:53:57;;;;;;;3.40;3.10;;;5.40;99.90;;;;;;637511;222;26581;-70
2022/03/16 03:56:25;;;;;;;3.20;3.00;;;5.30;99.90;;;;;;637788;222;26816;-70
2022/03/16 03:58:52;;;;;;;2.95;2.75;;;5.20;99.90;;;;;;637662;222;26567;-70
2022/03/16 04:01:19;;;;;;;2.95;2.75;;;5.20;99.90;;;;;;637391;224;26577;-70
2022/03/16 04:03:47;;;;;;;3.47;3.20;;;5.10;99.90;;;;;;646965;222;26552;-70
2022/03/16 04:06:15;;;;;;;3.53;3.25;;;5.10;99.90;;;;;;647548;222;26531;-70
2022/03/16 04:08:43;;;;;;;3.35;3.05;;;5.10;99.90;;;;;;647237;222;26777;-70
2022/03/16 04:11:11;;;;;;;2.85;2.65;;;5.10;99.90;;;;;;648901;220;27190;-70
2022/03/16 04:13:37;;;;;;;3.22;2.92;;;5.10;99.90;;;;;;648801;221;26574;-70
2022/03/16 04:16:05;;;;;;;3.62;3.33;;;5.00;99.90;;;;;;645192;221;26525;-70
2022/03/16 04:18:32;;;;;;;2.90;2.70;;;5.10;99.90;;;;;;641821;224;26537;-70
2022/03/16 04:21:00;;;;;;;2.67;2.47;;;5.00;99.90;;;;;;641521;224;26521;-70
2022/03/16 04:23:28;;;;;;;3.65;3.35;;;5.00;99.90;;;;;;641528;223;27188;-70
2022/03/16 04:25:56;;;;;;;4.80;3.28;;;5.00;99.90;;;;;;643348;222;26560;-70
2022/03/16 04:28:23;;;;;;;3.22;3.00;;;5.00;99.90;;;;;;644332;222;26783;-70
2022/03/16 04:30:51;;;;;;;3.00;2.80;;;5.00;99.90;;;;;;641178;223;26606;-70
2022/03/16 04:33:19;;;;;;;3.37;3.10;;;5.00;99.90;;;;;;641191;224;26587;-70
2022/03/16 04:35:46;;;;;;;3.30;3.00;;;4.90;99.90;;;;;;639872;224;26556;-70
2022/03/16 04:38:14;;;;;;;3.28;3.08;;;4.70;99.90;;;;;;637766;225;26581;-70
2022/03/16 04:40:41;;;;;;;3.00;2.80;;;5.10;99.90;;;;;;637773;224;27220;-70
2022/03/16 04:43:09;;;;;;;3.08;2.87;;;5.10;99.90;;;;;;637732;224;26803;-70
2022/03/16 04:45:38;;;;;;;3.08;2.87;;;5.10;99.90;;;;;;638605;222;26577;-70
2022/03/16 04:48:08;;;;;;;3.08;2.87;;;5.10;99.90;;;;;;637368;225;26613;-70
2022/03/16 04:50:33;;;;;;;3.50;3.20;;;5.10;99.90;;;;;;637666;222;26600;-70
2022/03/16 04:53:01;;;;;;;3.08;2.87;;;5.00;99.90;;;;;;637394;224;26794;-70
2022/03/16 04:55:28;;;;;;;3.10;2.83;;;5.00;99.90;;;;;;640793;222;26523;-70
2022/03/16 04:57:56;;;;;;;3.25;3.05;;;4.90;99.90;;;;;;647517;222;26572;-69
2022/03/16 05:00:24;;;;;;;3.30;3.10;;;4.90;99.90;;;;;;647528;222;26572;-70
2022/03/16 05:02:50;;;;;;;3.12;2.92;;;4.90;99.90;;;;;;647383;222;27085;-70
2022/03/16 05:05:18;;;;;;;3.58;3.22;;;4.80;99.90;;;;;;649511;221;26521;-70
2022/03/16 05:07:46;;;;;;;3.40;3.10;;;4.80;99.90;;;;;;647490;221;26573;-70
2022/03/16 05:10:13;;;;;;;3.60;3.20;;;4.80;99.90;;;;;;642588;222;26528;-69
2022/03/16 05:12:41;;;;;;;3.65;3.35;;;4.90;99.90;;;;;;639896;222;26619;-70
2022/03/16 05:15:09;;;;;;;3.05;2.85;;;4.90;99.90;;;;;;638890;221;26758;-70
2022/03/16 05:17:36;;;;;;;3.83;3.33;;;4.80;99.90;;;;;;648483;221;26571;-70
2022/03/16 05:20:03;;;;;;;3.40;3.10;;;4.80;99.90;;;;;;647514;222;27096;-70
2022/03/16 05:22:30;;;;;;;3.12;2.92;;;4.80;99.90;;;;;;648794;220;26769;-70
2022/03/16 05:24:58;;;;;;;3.20;2.87;;;4.80;99.90;;;;;;648747;221;26508;-70
2022/03/16 05:27:26;;;;;;;3.40;2.62;;;4.80;99.90;;;;;;648559;221;26531;-70
2022/03/16 05:29:53;;;;;;;3.87;3.58;;;4.80;99.90;;;;;;648544;222;27345;-69
2022/03/16 05:32:21;;;;;;;3.25;3.03;;;4.80;99.90;;;;;;648127;221;26878;-70
2022/03/16 05:34:49;;;;;;;3.25;2.95;;;4.90;99.90;;;;;;647724;222;26505;-70
2022/03/16 05:37:17;;;;;;;2.72;2.55;;;4.80;99.90;;;;;;647966;222;26515;-69
2022/03/16 05:39:45;;;;;;;2.97;2.78;;;4.90;99.90;;;;;;647861;221;26521;-69
2022/03/16 05:42:12;;;;;;;3.10;2.90;;;4.80;99.90;;;;;;641025;221;26855;-70
2022/03/16 05:44:39;;;;;;;3.00;2.80;;;4.80;99.90;;;;;;638431;221;26563;-69
2022/03/16 05:47:06;;;;;;;3.20;3.00;;;4.70;99.90;;;;;;638483;222;26770;-71
2022/03/16 05:49:33;;;;;;;2.90;2.70;;;4.70;99.90;;;;;;641206;224;26574;-71
2022/03/16 05:52:01;;;;;;;2.92;2.72;;;4.80;99.90;;;;;;641143;224;26812;-72
2022/03/16 05:54:28;;;;;;;3.05;2.85;;;4.60;99.90;;;;;;639687;219;26586;-70
2022/03/16 05:56:55;;;;;;;3.30;3.00;;;4.60;99.90;;;;;;637922;224;26569;-69
2022/03/16 05:59:22;;;;;;;3.62;3.15;;;4.90;99.90;;;;;;640919;221;26566;-69
2022/03/16 06:01:51;;;;;;;3.10;2.90;;;4.80;99.90;;;;;;638646;222;26796;-69
2022/03/16 06:04:17;;;;;;;3.30;3.00;;;4.80;99.90;;;;;;640449;222;26581;-70
2022/03/16 06:06:45;;;;;;;3.22;2.90;;;4.90;99.90;;;;;;640288;222;26618;-70
2022/03/16 06:09:13;;;;;;;2.75;2.55;;;4.90;99.90;;;;;;640613;222;26521;-69
2022/03/16 06:11:41;;;;;;;3.00;2.80;;;5.00;99.90;;;;;;640855;224;26505;-69
2022/03/16 06:14:08;;;;;;;2.97;2.78;;;5.00;99.90;;;;;;640788;224;26777;-69
2022/03/16 06:16:35;;;;;;;3.00;2.80;;;4.90;99.90;;;;;;640886;224;26517;-70
2022/03/16 06:19:03;;;;;;;3.45;3.15;;;5.10;99.90;;;;;;638301;222;26560;-70
2022/03/16 06:21:30;;;;;;;3.40;3.10;;;5.10;99.90;;;;;;637466;225;26784;-64
2022/03/16 06:23:58;;;;;;;7.03;3.35;;;5.20;99.90;;;;;;637432;224;26573;-69
2022/03/16 06:26:25;;;;;;;6.97;3.65;;;5.20;99.90;;;;;;638731;222;26892;-65
2022/03/16 06:28:52;;;;;;;5.82;3.40;;;5.30;99.90;;;;;;647777;221;26541;-66
2022/03/16 06:31:19;;;;;;;4.68;3.70;;;5.30;99.90;;;;;;647437;221;26591;-66
2022/03/16 06:33:47;;;;;;;6.70;3.70;;;5.40;99.90;;;;;;648552;220;26598;-65
2022/03/16 06:36:14;;;;;;;5.70;3.95;;;5.40;99.90;;;;;;646633;221;26551;-67
2022/03/16 06:38:41;;;;;;;8.82;3.87;;;5.50;99.90;;;;;;638909;224;26516;-64
2022/03/16 06:41:09;;;;;;;4.47;3.87;;;5.50;99.90;;;;;;641171;222;26768;-66
2022/03/16 06:43:36;;;;;;;5.15;4.03;;;5.50;99.90;;;;;;639543;222;26536;-66
2022/03/16 06:46:03;;;;;;;6.32;4.32;;;5.60;99.90;;;;;;649361;221;26754;-66
2022/03/16 06:48:31;;;;;;;9.50;4.40;;;5.70;99.90;;;;;;649945;221;26516;-65
2022/03/16 06:50:59;;;;;;;6.50;4.80;;;5.80;99.90;;;;;;650880;221;26528;-66
2022/03/16 06:53:28;;;;;;;9.63;4.57;;;5.80;99.90;;;;;;649947;221;26587;-67
2022/03/16 06:55:54;;;;;;;9.02;4.75;;;5.80;99.90;;;;;;649172;221;26568;-66
2022/03/16 06:58:21;;;;;;;5.85;4.72;;;5.90;99.90;;;;;;647923;222;26830;-66
2022/03/16 07:00:48;;;;;;;6.32;4.80;;;5.90;99.90;;;;;;648882;221;26555;-67
2022/03/16 07:03:15;;;;;;;7.25;5.25;;;5.90;99.90;;;;;;650674;221;26579;-67
2022/03/16 07:05:43;;;;;;;6.85;5.20;;;5.90;99.90;;;;;;650766;221;26860;-65
2022/03/16 07:08:11;;;;;;;8.75;5.30;;;6.00;99.90;;;;;;640308;221;26578;-66
2022/03/16 07:10:38;;;;;;;7.22;5.20;;;5.90;99.90;;;;;;637418;225;26573;-65
2022/03/16 07:13:06;;;;;;;7.25;5.05;;;5.90;99.90;;;;;;637436;226;26564;-65
2022/03/16 07:15:33;;;;;;;6.15;5.43;;;5.90;99.90;;;;;;639160;222;27258;-66
2022/03/16 07:18:01;;;;;;;8.57;5.80;;;5.80;99.90;;;;;;640952;224;26509;-66
2022/03/16 07:20:28;;;;;;;5.82;5.25;;;5.90;99.90;;;;;;640721;224;26520;-65
2022/03/16 07:23:02;;;;;;;6.80;5.25;;;6.00;99.90;;;;;;640733;224;26536;-69
2022/03/16 07:25:29;;;;;;;24.45;6.00;;;5.90;99.90;;;;;;640889;222;26583;-70
2022/03/16 07:27:58;;;;;;;24.27;6.07;;;6.10;99.90;;;;;;640538;221;26759;-63
2022/03/16 07:30:25;;;;;;;13.90;5.90;;;6.10;99.90;;;;;;641430;221;26515;-64
2022/03/16 07:32:53;;;;;;;8.70;5.22;;;6.10;99.90;;;;;;638465;222;26804;-64
2022/03/16 07:35:26;;;;;;;11.23;6.03;;;6.10;99.90;;;;;;641949;221;26611;-64
2022/03/16 07:37:47;;;;;;;8.77;5.72;;;6.10;99.90;;;;;;640574;221;26598;-69
2022/03/16 07:40:15;;;;;;;8.35;5.62;;;6.20;99.90;;;;;;640696;221;26734;-68
2022/03/16 07:42:44;;;;;;;14.48;6.22;;;6.20;99.90;;;;;;637898;222;26573;-67
2022/03/16 07:45:11;;;;;;;13.90;6.68;;;6.20;99.90;;;;;;646120;220;26557;-68
2022/03/16 07:47:39;;;;;;;14.73;6.80;;;6.20;99.90;;;;;;644342;221;26564;-67
2022/03/16 07:50:08;;;;;;;10.25;5.82;;;6.20;99.90;;;;;;645149;221;26531;-68
2022/03/16 07:52:35;;;;;;;7.70;6.80;;;6.20;99.90;;;;;;644762;221;26848;-67
2022/03/16 07:55:03;;;;;;;8.13;6.22;;;6.20;99.90;;;;;;640991;224;26477;-67
2022/03/16 07:57:30;;;;;;;6.25;5.65;;;6.10;99.90;;;;;;642518;221;26569;-67
2022/03/16 07:59:57;;;;;;;8.23;6.03;;;6.20;99.90;;;;;;640534;224;26866;-67
2022/03/16 08:02:28;;;;;;;7.12;5.90;;;6.30;99.90;;;;;;639295;221;26552;-67
2022/03/16 08:04:57;;;;;;;10.45;6.20;;;6.30;99.90;;;;;;641418;222;26601;-67
2022/03/16 08:07:22;;;;;;;8.77;5.97;;;6.60;99.90;;;;;;643240;222;26739;-67
2022/03/16 08:09:50;;;;;;;6.62;5.95;;;6.70;99.90;;;;;;639143;221;26563;-67
2022/03/16 08:12:17;;;;;;;6.47;5.68;;;6.70;99.90;;;;;;638699;224;27154;-67
2022/03/16 08:14:45;;;;;;;6.15;5.55;;;6.90;99.90;;;;;;644229;222;26578;-66
2022/03/16 08:17:13;;;;;;;7.03;5.70;;;6.90;99.90;;;;;;640254;222;26604;-67
2022/03/16 08:19:40;;;;;;;9.93;6.07;;;6.90;99.90;;;;;;638640;221;26593;-67
2022/03/16 08:22:07;;;;;;;8.43;5.85;;;7.10;99.90;;;;;;641690;221;26553;-67
2022/03/16 08:24:34;;;;;;;7.55;6.10;;;7.30;99.90;;;;;;643160;222;26868;-67
2022/03/16 08:27:02;;;;;;;7.47;6.10;;;7.20;99.90;;;;;;640787;221;26581;-66
2022/03/16 08:29:29;;;;;;;6.60;5.87;;;7.20;99.90;;;;;;643620;222;26756;-66
2022/03/16 08:31:58;;;;;;;7.30;5.57;;;7.70;99.50;;;;;;642027;222;26616;-66
2022/03/16 08:34:25;;;;;;;6.72;6.00;;;7.90;99.10;;;;;;641964;221;26538;-66
2022/03/16 08:36:53;;;;;;;7.00;5.80;;;7.80;99.00;;;;;;639538;221;26582;-67
2022/03/16 08:39:21;;;;;;;7.05;5.72;;;7.80;99.00;;;;;;640784;221;27287;-66
2022/03/16 08:41:49;;;;;;;6.10;5.50;;;7.80;99.00;;;;;;637355;225;26847;-66
2022/03/16 08:44:17;;;;;;;7.62;6.10;;;7.80;98.80;;;;;;640549;222;26542;-67
2022/03/16 08:46:43;;;;;;;9.75;5.65;;;7.90;99.10;;;;;;642388;222;26584;-68
2022/03/16 08:49:10;;;;;;;16.98;5.97;;;7.80;98.80;;;;;;647515;222;27221;-66
2022/03/16 08:51:39;;;;;;;79.00;20.73;;;7.90;98.90;;;;;;646083;221;26596;-69
2022/03/16 08:54:05;;;;;;;516.17;50.03;;;7.80;98.90;;;;;;640750;224;26774;-69
2022/03/16 08:56:32;;;;;;;1999.90;389.73;;;7.70;99.30;;;;;;646751;220;26580;-70
2022/03/16 08:59:00;;;;;;;1999.90;458.50;;;8.00;99.30;;;;;;643503;221;26766;-68
2022/03/16 09:01:26;;;;;;;1999.90;372.88;;;8.00;98.90;;;;;;648622;221;26514;-66
2022/03/16 09:03:54;;;;;;;1281.45;82.95;;;8.40;99.70;;;;;;641361;222;26612;-64
2022/03/16 09:06:22;;;;;;;70.70;23.35;;;8.50;98.70;;;;;;626973;225;26554;-64
2022/03/16 09:08:50;;;;;;;69.15;24.60;;;8.10;98.80;;;;;;640901;221;26519;-64
2022/03/16 09:11:18;;;;;;;68.18;24.92;;;7.90;99.30;;;;;;645076;221;26512;-64
2022/03/16 09:13:47;;;;;;;65.03;24.95;;;7.90;99.30;;;;;;644857;221;26594;-64
2022/03/16 09:16:14;;;;;;;75.70;25.15;;;8.30;99.00;;;;;;638293;224;26568;-64
2022/03/16 09:18:41;;;;;;;60.12;22.73;;;8.60;98.50;;;;;;644965;222;26541;-67
2022/03/16 09:21:11;;;;;;;53.78;19.80;;;8.60;98.10;;;;;;640883;222;26544;-64
2022/03/16 09:23:36;;;;;;;37.65;16.80;;;8.60;98.10;;;;;;637286;225;26619;-64
2022/03/16 09:26:05;;;;;;;27.10;14.80;;;8.60;97.90;;;;;;645209;222;26575;-64
2022/03/16 09:28:31;;;;;;;20.75;12.65;;;8.30;98.50;;;;;;640843;222;26566;-64
2022/03/16 09:30:58;;;;;;;17.65;11.15;;;8.20;98.90;;;;;;638477;221;26560;-64
2022/03/16 09:33:30;;;;;;;22.58;11.02;;;8.20;98.80;;;;;;637491;224;26841;-64
2022/03/16 09:35:53;;;;;;;14.25;9.98;;;8.10;98.70;;;;;;637373;225;26807;-64
2022/03/16 09:38:20;;;;;;;11.90;9.10;;;8.60;98.50;;;;;;637295;225;26790;-65
2022/03/16 09:40:48;;;;;;;15.00;8.35;;;8.80;98.40;;;;;;639796;220;26588;-64
2022/03/16 09:43:17;;;;;;;13.75;8.13;;;9.00;97.80;;;;;;642677;221;26804;-65
2022/03/16 09:45:50;;;;;;;13.90;7.87;;;9.10;97.80;;;;;;640138;221;26572;-65
2022/03/16 09:48:16;;;;;;;11.75;7.80;;;9.10;97.30;;;;;;644427;221;26571;-62
2022/03/16 09:50:44;;;;;;;13.48;7.97;;;9.30;97.40;;;;;;644049;221;26557;-64
2022/03/16 09:53:12;;;;;;;10.18;7.57;;;9.20;97.30;;;;;;637316;221;26594;-63
2022/03/16 09:55:39;;;;;;;15.25;7.50;;;9.40;97.00;;;;;;637178;225;26569;-65
2022/03/16 09:58:06;;;;;;;9.60;7.28;;;9.40;97.00;;;;;;639224;224;26778;-64
2022/03/16 10:00:33;;;;;;;9.68;6.90;;;9.50;97.00;;;;;;645678;222;26580;-64
2022/03/16 10:03:02;;;;;;;8.43;6.68;;;9.60;96.80;;;;;;638267;222;27090;-63
2022/03/16 10:05:28;;;;;;;8.07;6.25;;;9.80;96.50;;;;;;640395;222;26548;-65
2022/03/16 10:07:59;;;;;;;7.35;6.50;;;9.80;96.20;;;;;;644888;222;26531;-65
2022/03/16 10:15:35;;;;;;;11.68;6.80;;;10.00;95.40;;;;;;640763;222;26557;-66
2022/03/16 10:18:03;;;;;;;11.32;6.55;;;9.60;96.20;;;;;;642938;222;26523;-65
2022/03/16 10:20:32;;;;;;;10.57;5.97;;;9.60;96.50;;;;;;640460;224;26524;-66
2022/03/16 10:23:02;;;;;;;13.95;6.87;;;9.50;96.70;;;;;;641913;222;26524;-66
2022/03/16 10:25:30;;;;;;;15.05;6.78;;;9.70;96.30;;;;;;645384;221;26780;-67
2022/03/16 10:28:11;;;;;;;13.98;6.90;;;9.50;96.70;;;;;;642209;221;26784;-67
2022/03/16 10:30:39;;;;;;;16.87;6.80;;;9.80;96.60;;;;;;641077;221;26555;-66
2022/03/16 10:33:06;;;;;;;17.30;6.80;;;9.90;96.00;;;;;;644325;222;26587;-67
2022/03/16 10:35:34;;;;;;;16.27;6.57;;;9.40;96.40;;;;;;641556;222;26569;-66
2022/03/16 10:38:07;;;;;;;11.90;6.20;;;9.90;96.20;;;;;;647564;222;26623;-67
2022/03/16 10:40:34;;;;;;;13.80;6.70;;;9.90;96.20;;;;;;639436;222;26563;-62
2022/03/16 10:48:22;;;;;;;11.12;5.85;;;11.00;93.70;;;;;;644110;221;26588;-62
2022/03/16 10:50:50;;;;;;;11.02;5.80;;;11.00;93.60;;;;;;646176;221;26569;-63
2022/03/16 10:53:17;;;;;;;12.25;6.00;;;11.00;93.40;;;;;;641485;221;26899;-62
2022/03/16 10:55:45;;;;;;;10.55;5.70;;;11.30;93.10;;;;;;640914;224;26541;-62
2022/03/16 10:58:13;;;;;;;9.93;5.50;;;11.00;93.10;;;;;;638630;222;26567;-61
2022/03/16 11:00:40;;;;;;;9.10;5.53;;;11.00;93.10;;;;;;639928;219;26561;-60
2022/03/16 11:03:07;;;;;;;9.40;5.80;;;10.80;93.20;;;;;;640766;224;26536;-61
2022/03/16 11:05:36;;;;;;;7.68;5.40;;;11.10;93.20;;;;;;640737;224;26752;-62
2022/03/16 11:08:04;;;;;;;5.68;4.95;;;10.90;92.80;;;;;;640806;224;26490;-62
2022/03/16 11:10:29;;;;;;;7.35;4.60;;;10.70;93.30;;;;;;640668;224;26749;-62
2022/03/16 11:15:29;;;;;;;6.15;4.80;;;10.70;93.40;;;;;;640941;224;26526;-62
2022/03/16 11:17:57;;;;;;;9.85;5.50;;;11.00;93.70;;;;;;640835;224;26506;-62
2022/03/16 11:20:25;;;;;;;9.05;4.97;;;11.30;93.20;;;;;;642049;222;26561;-62
2022/03/16 11:25:29;;;;;;;14.68;5.30;;;11.40;92.60;;;;;;641931;223;26839;-62
2022/03/16 11:27:56;;;;;;;17.23;5.30;;;11.50;92.70;;;;;;642050;219;26544;-62
2022/03/16 11:30:28;;;;;;;18.23;5.50;;;11.50;92.30;;;;;;641919;224;26485;-62
2022/03/16 11:32:56;;;;;;;10.23;5.10;;;11.30;92.30;;;;;;641745;224;26533;-62
2022/03/16 11:35:21;;;;;;;11.52;4.87;;;10.70;93.10;;;;;;641742;224;26503;-62
2022/03/16 11:37:49;;;;;;;12.45;4.53;;;10.30;93.50;;;;;;641817;223;26490;-63
2022/03/16 11:40:22;;;;;;;11.20;5.22;;;10.10;94.10;;;;;;641557;224;26563;-63
2022/03/16 11:43:04;;;;;;;12.05;4.97;;;10.10;94.10;;;;;;641521;223;26586;-63
2022/03/16 11:45:37;;;;;;;11.25;4.93;;;10.20;94.10;;;;;;640769;224;26563;-63
2022/03/16 11:48:19;;;;;;;10.43;4.72;;;10.20;94.20;;;;;;641260;223;26555;-63
2022/03/16 11:51:03;;;;;;;7.25;4.45;;;10.00;94.20;;;;;;640041;224;26548;-63
2022/03/16 11:53:30;;;;;;;14.60;4.95;;;9.80;95.20;;;;;;638809;224;26839;-63
2022/03/16 11:55:58;;;;;;;9.02;4.80;;;9.80;95.20;;;;;;639344;224;26515;-63
2022/03/16 11:58:26;;;;;;;8.00;4.60;;;9.60;95.60;;;;;;640890;224;26477;-63
2022/03/16 12:00:59;;;;;;;7.62;5.03;;;9.80;95.50;;;;;;640840;224;26508;-63
2022/03/16 12:03:26;;;;;;;9.10;4.15;;;9.80;95.60;;;;;;640767;223;26533;-63
2022/03/16 12:05:56;;;;;;;10.68;4.90;;;9.80;95.30;;;;;;640799;224;26484;-63
2022/03/16 12:08:23;;;;;;;8.15;4.57;;;9.80;95.30;;;;;;640817;224;26732;-64
2022/03/16 12:12:50;;;;;;;9.75;4.62;;;9.90;95.40;;;;;;640755;224;26543;-62
2022/03/16 12:13:19;;;;;;;15.23;6.45;;;10.00;94.80;;;;;;640443;223;26546;-61
2022/03/16 12:15:51;;;;;;;8.88;4.90;;;10.00;94.80;;;;;;640507;224;26520;-62
2022/03/16 12:18:18;;;;;;;16.50;5.45;;;9.90;95.40;;;;;;640676;224;26545;-63
2022/03/16 12:20:45;;;;;;;12.55;5.18;;;10.00;94.90;;;;;;641355;224;26481;-62
2022/03/16 12:23:16;;;;;;;7.35;4.12;;;10.00;94.90;;;;;;641259;224;26521;-61
2022/03/16 12:25:43;;;;;;;8.93;4.70;;;10.00;95.00;;;;;;641246;224;26731;-62
2022/03/16 12:30:47;;;;;;;100.90;55.35;;;10.10;95.00;;;;;;641372;222;26759;-62
2022/03/16 12:33:19;;;;;;;250.98;138.48;;;10.30;95.00;;;;;;642872;223;26596;-62
2022/03/16 12:35:44;;;;;;;285.48;162.27;;;10.40;94.70;;;;;;641797;224;26553;-62
2022/03/16 12:38:12;;;;;;;244.15;140.32;;;10.40;94.60;;;;;;641789;223;26564;-62
2022/03/16 12:42:31;;;;;;;205.12;119.50;;;10.40;94.50;;;;;;641690;224;26553;-63
2022/03/16 12:43:08;;;;;;;197.87;115.22;;;10.40;94.70;;;;;;639554;223;26812;-62
2022/03/16 12:45:36;;;;;;;183.50;103.25;;;10.40;94.70;;;;;;641493;224;26531;-62
2022/03/16 12:48:04;;;;;;;153.68;91.10;;;10.40;94.60;;;;;;641537;218;26521;-62
2022/03/16 12:50:31;;;;;;;151.50;83.53;;;10.40;94.40;;;;;;640877;224;26602;-61
2022/03/16 12:53:01;;;;;;;137.55;79.62;;;10.40;94.40;;;;;;641165;224;26598;-61
2022/03/16 12:55:27;;;;;;;126.35;72.80;;;10.40;94.60;;;;;;641009;224;26615;-61
2022/03/16 12:57:55;;;;;;;119.43;68.32;;;10.50;94.60;;;;;;641150;223;26591;-61
2022/03/16 13:00:22;;;;;;;114.18;65.03;;;10.50;94.60;;;;;;641185;224;26581;-60
2022/03/16 13:02:50;;;;;;;103.18;60.53;;;10.50;94.70;;;;;;640095;224;26813;-61
2022/03/16 13:05:17;;;;;;;103.87;58.45;;;10.50;94.80;;;;;;641201;224;26564;-62
2022/03/16 13:07:44;;;;;;;91.25;53.75;;;10.60;94.80;;;;;;641042;223;26718;-61
2022/03/16 13:10:11;;;;;;;92.85;53.08;;;10.70;94.70;;;;;;640841;224;26511;-61